Tiempo atmosférico en la estación meteorológica de Quinto, Zaragoza (205 m.)



Fecha
DESCASC
Temp. máxima en grados centígrados (hora)
DESCASC
Temp. mínima en grados centígrados (hora)
DESCASC
Temp. media en grados centígrados
DESCASC
Racha de viento máxima en m/sg (hora)
DESCASC
Velocidad máxima media en intervalos de 10 minutos(hora)
DESCASC
Precipitaciones diarias en mm
DESCASC
Precipitaciones de 00:00 a 06:00 en mm
DESCASC
Precipitaciones de 06:00 a 12:00 en mm
DESCASC
Precipitaciones de 12:00 a 18:00 en mm
DESCASC
Precipitaciones de 18:00 a 24:00 en mm
DESCASC
10-07-2020 34.6 (18:40) 19.3 (06:20) 26.9 14.44 (23:30) 8.61 (23:50) 0 0 0 0 0
09-07-2020 35.4 (19:30) 21.9 (06:20) 28.7 15 (22:50) 10.56 (23:00) 0 0 0 0 0
08-07-2020 34.9 (16:50) 17.2 (06:50) 26.1 9.72 (12:00) 5.83 (21:10) 0 0 0 0 0
07-07-2020 33.7 (19:10) 15.4 (06:40) 24.6 15.83 (00:10) 8.06 (09:00) 0 0 0 0 0
06-07-2020 31.4 (15:50) 20.3 (00:00) 25.8 21.94 (19:00) 11.39 (20:40) 0 0 0 0 0
05-07-2020 35.9 (18:40) 15.8 (07:10) 25.9 11.67 (23:50) 6.67 (23:50) 0 0 0 0 0
04-07-2020 32.4 (18:40) 15.5 (07:10) 24 12.22 (02:20) 8.33 (09:40) 0 0 0 0 0
03-07-2020 28 (17:20) 17.4 (07:10) 22.7 16.67 (06:00) 10.28 (01:30) 0 0 0 0 0
02-07-2020 32.3 (17:20) 19.5 (00:00) 25.9 15.83 (23:59) 10 (19:50) 0 0 0 0 0
01-07-2020 37.1 (17:20) 20.3 (00:00) 28.7 13.61 (19:50) 8.89 (19:50) 0 0 0 0 0
30-06-2020 36 (18:10) 18.1 (00:00) 27.1 9.44 (19:40) 5.28 (00:20) 12 0 0 0 12
29-06-2020 34.8 (18:50) 20 (00:00) 27.4 11.94 (21:50) 7.5 (21:20) 0 0 0 0 0
28-06-2020 35.9 (18:30) 19.4 (00:00) 27.7 7.5 (09:30) 5 (09:10) 0 0 0 0 0
27-06-2020 33.5 (17:20) 16.5 (00:00) 25 7.22 (12:00) 4.44 (12:00) 0 0 0 0 0
26-06-2020 34.8 (15:20) 19.1 (00:00) 26.9 9.44 (18:40) 4.72 (02:50) 0.6 0 0 0 0.6
25-06-2020 36.5 (16:20) 16.8 (00:00) 26.6 20 (19:20) 7.78 (19:20) 6 0 0 0 6
24-06-2020 34.6 (15:00) 19.8 (00:00) 27.2 18.89 (17:00) 12.78 (17:20) 0 0 0 0 0
23-06-2020 36.1 (17:50) 14.8 (00:00) 25.4 12.22 (20:00) 6.11 (19:50) 0 0 0 0 0
22-06-2020 33.2 (18:30) 18.9 (00:00) 26.1 13.33 (00:20) 8.33 (00:20) 0 0 0 0 0
21-06-2020 34.1 (17:30) 17.8 (00:00) 25.9 13.61 (23:59) 8.33 (23:30) 0 0 0 0 0
20-06-2020 32.8 (18:50) 17.5 (00:00) 25.1 5 (16:50) 3.33 (08:50) 0 0 0 0 0
19-06-2020 30 (18:10) 15.5 (00:00) 22.8 8.06 (16:40) 5 (19:50) 0 0 0 0 0
18-06-2020 26.9 (18:30) 13.8 (06:40) 20.3 8.33 (03:30) 5 (03:30) 2.4 0 2.4 0 0
17-06-2020 25.2 (17:30) 14.1 (00:00) 19.7 9.17 (11:20) 6.39 (11:30) 0 0 0 0 0
16-06-2020 24.3 (17:40) 14.2 (00:00) 19.2 10.83 (21:30) 7.5 (20:20) 8.2 1.4 5.6 1 0.2
15-06-2020 28.9 (18:10) 14.9 (00:00) 21.9 9.17 (16:20) 6.11 (12:00) 0 0 0 0 0
14-06-2020 28.7 (17:00) 11.4 (00:00) 20.1 10 (16:00) 5.83 (18:30) 0 0 0 0 0
13-06-2020 25.6 (16:00) 11.9 (00:00) 18.8 12.78 (15:50) 6.94 (15:50) 0 0 0 0 0
12-06-2020 26.5 (17:40) 12 (00:00) 19.3 12.5 (18:20) 8.06 (18:20) 0 0 0 0 0

Gráficas

Temp. máximas Temp. mínimas Temp. medias Precipitaciones Rachas de viento máximas Velocidades máximas media en intervalos de 10 minutos

Datos horarios

Fecha y hora oficial Temperatura (ºC) Velocidad del viento (km/h) Dirección del viento Racha (km/h) Dirección de racha Precipitación (mm) Presión (hPa) Tendencia (hPa) Humedad (%)
2020-07-11 23:00:00 28 4 Este 8 Nordeste 0 -- -- 50
2020-07-11 22:00:00 29.9 5 Este 13 Este 0 -- -- 44
2020-07-11 21:00:00 32.3 3 Norte 6 Noroeste 0 -- -- 37
2020-07-11 20:00:00 33.4 4 Norte 8 Sur 0 -- -- 32
2020-07-11 19:00:00 33.9 5 Sudoeste 16 Sur 0 -- -- 32
2020-07-11 18:00:00 33.2 4 Este 15 Norte 0 -- -- 34
2020-07-11 17:00:00 31.9 8 Norte 15 Norte 0 -- -- 36
2020-07-11 16:00:00 31.3 6 Norte 19 Noroeste 0 -- -- 39
2020-07-11 15:00:00 29.9 10 Noroeste 25 Noroeste 0 -- -- 41
2020-07-11 14:00:00 28.7 9 Noroeste 22 Noroeste 0 -- -- 42
2020-07-11 13:00:00 27.2 17 Noroeste 28 Noroeste 0 -- -- 44
2020-07-11 12:00:00 25.9 14 Noroeste 29 Noroeste 0 -- -- 47
2020-07-11 11:00:00 24.1 20 Noroeste 35 Noroeste 0 -- -- 50
2020-07-11 10:00:00 23 21 Noroeste 39 Oeste 0 -- -- 53
2020-07-11 09:00:00 21.4 26 Noroeste 40 Oeste 0 -- -- 57
2020-07-11 08:00:00 20.1 17 Noroeste 33 Noroeste 0 -- -- 63
2020-07-11 07:00:00 19 18 Noroeste 34 Oeste 0 -- -- 67
2020-07-11 06:00:00 19.1 15 Noroeste 31 Oeste 0 -- -- 67
2020-07-11 05:00:00 19.5 17 Noroeste 38 Noroeste 0 -- -- 66
2020-07-11 04:00:00 19.8 22 Noroeste 39 Noroeste 0 -- -- 65
2020-07-11 03:00:00 20.3 26 Noroeste 46 Noroeste 0 -- -- 65
2020-07-11 02:00:00 20.9 29 Noroeste 53 Oeste 0 -- -- 62
2020-07-11 01:00:00 21.8 33 Noroeste 55 Noroeste 0 -- -- 60
2020-07-11 00:00:00 22.6 29 Noroeste 52 Noroeste 0 -- -- 58
2020-07-10 23:00:00 23.9 27 Oeste 51 Oeste 0 -- -- 55
2020-07-10 22:00:00 26.1 25 Noroeste 44 Oeste 0 -- -- 52
2020-07-10 21:00:00 29.7 22 Oeste 43 Noroeste 0 -- -- 44
2020-07-10 20:00:00 33.1 15 Noroeste 30 Noroeste 0 -- -- 38
2020-07-10 19:00:00 34.3 4 Norte 11 Norte 0 -- -- 29
2020-07-10 18:00:00 33.8 7 Norte 13 Norte 0 -- -- 30
2020-07-10 17:00:00 33.2 6 Nordeste 15 Este 0 -- -- 37
2020-07-10 16:00:00 32.6 8 Norte 19 Norte 0 -- -- 39
2020-07-10 15:00:00 32 10 Norte 21 Noroeste 0 -- -- 42
2020-07-10 14:00:00 30.7 9 Noroeste 24 Noroeste 0 -- -- 44
2020-07-10 13:00:00 29.4 13 Noroeste 23 Norte 0 -- -- 47
2020-07-10 12:00:00 27.6 10 Norte 25 Noroeste 0 -- -- 53
2020-07-10 11:00:00 25.8 19 Noroeste 30 Noroeste 0 -- -- 58
2020-07-10 10:00:00 24.8 17 Noroeste 33 Noroeste 0 -- -- 61
2020-07-10 09:00:00 23.5 17 Noroeste 24 Noroeste 0 -- -- 66
2020-07-10 08:00:00 21.4 5 Noroeste 11 Noroeste 0 -- -- 74
2020-07-10 07:00:00 19.9 6 Oeste 10 Oeste 0 -- -- 75
2020-07-10 06:00:00 19.6 4 Oeste 9 Oeste 0 -- -- 72
2020-07-10 05:00:00 19.6 4 Oeste 8 Oeste 0 -- -- 73
2020-07-10 04:00:00 20.7 7 Sudoeste 12 Sudoeste 0 -- -- 69
2020-07-10 03:00:00 21.4 6 Sudoeste 14 Sudoeste 0 -- -- 66
2020-07-10 02:00:00 23 4 Sur 8 Este 0 -- -- 62
2020-07-10 01:00:00 24.1 3 Este 11 Norte 0 -- -- 55
2020-07-10 00:00:00 24.5 7 Norte 52 Sudoeste 0 -- -- 55
2020-07-09 23:00:00 27.1 38 Sudoeste 54 Sudoeste 0 -- -- 48
2020-07-09 22:00:00 30.5 6 Sudeste 15 Sudeste 0 -- -- 45
2020-07-09 21:00:00 33.2 11 Sudeste 17 Sudeste 0 -- -- 36
2020-07-09 20:00:00 35.3 5 Este 10 Sudeste 0 -- -- 31
2020-07-09 19:00:00 35.3 4 Norte 12 Norte 0 -- -- 31
2020-07-09 18:00:00 34.6 7 Norte 20 Noroeste 0 -- -- 36
2020-07-09 17:00:00 34.5 10 Noroeste 19 Sudoeste 0 -- -- 36
2020-07-09 16:00:00 32.9 14 Sudoeste 22 Sudoeste 0 -- -- 41
2020-07-09 15:00:00 30.6 10 Noroeste 21 Sur 0 -- -- 48
2020-07-09 14:00:00 30.7 10 Oeste 22 Este 0 -- -- 50
2020-07-09 13:00:00 30.1 7 Sudeste 17 Este 0 -- -- 53
2020-07-09 12:00:00 29.9 13 Sudeste 24 Este 0 -- -- 54
2020-07-09 11:00:00 28.4 8 Nordeste 16 Este 0 -- -- 58
2020-07-09 10:00:00 26.2 12 Este 26 Este 0 -- -- 65
2020-07-09 09:00:00 25.6 12 Este 23 Este 0 -- -- 68
2020-07-09 08:00:00 22.9 10 Sudeste 17 Sur 0 -- -- 78
2020-07-09 07:00:00 22.1 4 Sudeste 10 Norte 0 -- -- 79
2020-07-09 06:00:00 22.4 8 Norte 23 Sudoeste 0 -- -- 79
2020-07-09 05:00:00 22.6 7 Sudoeste 13 Sudoeste 0 -- -- 76
2020-07-09 04:00:00 24.3 9 Sudeste 13 Sudeste 0 -- -- 71
2020-07-09 03:00:00 24.7 4 Sudeste 18 Nordeste 0 -- -- 69
2020-07-09 02:00:00 25.2 4 Este 21 Este 0 -- -- 68
2020-07-09 01:00:00 25.6 15 Este 35 Nordeste 0 -- -- 68
2020-07-09 00:00:00 26.8 10 Este 18 Este 0 -- -- 62
2020-07-08 23:00:00 27.5 8 Sudeste 14 Sudeste 0 -- -- 47
2020-07-08 22:00:00 28.4 3 Sudeste 30 Sudeste 0 -- -- 45
2020-07-08 21:00:00 29.9 16 Sur 26 Oeste 0 -- -- 41
2020-07-08 20:00:00 31.8 7 Sudoeste 19 Sudeste 0 -- -- 47
2020-07-08 19:00:00 32.9 12 Sudeste 21 Sudeste 0 -- -- 45
2020-07-08 18:00:00 34.4 6 Este 17 Este 0 -- -- 32
2020-07-08 17:00:00 34.9 8 Este 19 Sudeste 0 -- -- 27
2020-07-08 16:00:00 33.9 10 Sudeste 22 Sudeste 0 -- -- 29
2020-07-08 15:00:00 33.4 12 Sudeste 23 Sudeste 0 -- -- 31
2020-07-08 14:00:00 31.3 14 Sudeste 26 Sudeste 0 -- -- 40
2020-07-08 13:00:00 28.9 6 Nordeste 15 Este 0 -- -- 48
2020-07-08 12:00:00 27.3 18 Oeste 35 Oeste 0 -- -- 52
2020-07-08 11:00:00 25.2 5 Nordeste 18 Oeste 0 -- -- 58
2020-07-08 10:00:00 23.1 11 Oeste 18 Oeste 0 -- -- 60
2020-07-08 09:00:00 20.6 8 Noroeste 11 Noroeste 0 -- -- 67
2020-07-08 08:00:00 18 5 Norte 10 Noroeste 0 -- -- 73
2020-07-08 07:00:00 17.3 7 Noroeste 13 Noroeste 0 -- -- 76
2020-07-08 06:00:00 18.3 9 Oeste 16 Oeste 0 -- -- 71
2020-07-08 05:00:00 18.9 9 Noroeste 15 Noroeste 0 -- -- 70
2020-07-08 04:00:00 18.9 6 Noroeste 14 Noroeste 0 -- -- 68
2020-07-08 03:00:00 20.8 9 Noroeste 16 Noroeste 0 -- -- 59
2020-07-08 02:00:00 21.4 9 Noroeste 14 Noroeste 0 -- -- 54
2020-07-08 01:00:00 21.5 4 Oeste 12 Oeste 0 -- -- 48
2020-07-08 00:00:00 23.6 8 Sudoeste 10 Sudoeste 0 -- -- 39
2020-07-07 23:00:00 26.1 0 Calma 5 Nordeste 0 -- -- 38
2020-07-07 22:00:00 28.9 4 Nordeste 9 Noroeste 0 -- -- 34
2020-07-07 21:00:00 31.6 5 Noroeste 9 Noroeste 0 -- -- 28
2020-07-07 20:00:00 33.6 5 Noroeste 14 Oeste 0 -- -- 22
2020-07-07 19:00:00 33.6 7 Oeste 16 Oeste 0 -- -- 23
2020-07-07 18:00:00 32.8 8 Norte 20 Noroeste 0 -- -- 26
2020-07-07 17:00:00 31.7 10 Norte 27 Noroeste 0 -- -- 27
2020-07-07 16:00:00 30.1 18 Noroeste 28 Norte 0 -- -- 28
2020-07-07 15:00:00 28.4 17 Noroeste 31 Noroeste 0 -- -- 30
2020-07-07 14:00:00 26.6 20 Noroeste 34 Noroeste 0 -- -- 33
2020-07-07 13:00:00 25 21 Noroeste 37 Noroeste 0 -- -- 37
2020-07-07 12:00:00 23.2 20 Noroeste 36 Oeste 0 -- -- 43
2020-07-07 11:00:00 21.8 19 Oeste 35 Noroeste 0 -- -- 46
2020-07-07 10:00:00 19.6 26 Noroeste 44 Oeste 0 -- -- 53
2020-07-07 09:00:00 18.4 29 Noroeste 45 Noroeste 0 -- -- 56
2020-07-07 08:00:00 17.2 16 Oeste 33 Oeste 0 -- -- 58
2020-07-07 07:00:00 15.5 21 Oeste 34 Oeste 0 -- -- 61
2020-07-07 06:00:00 15.9 17 Oeste 39 Oeste 0 -- -- 59
2020-07-07 05:00:00 16.5 21 Oeste 39 Oeste 0 -- -- 55
2020-07-07 04:00:00 17 22 Oeste 36 Noroeste 0 -- -- 53
2020-07-07 03:00:00 17.7 18 Oeste 32 Oeste 0 -- -- 52
2020-07-07 02:00:00 18.3 17 Oeste 40 Noroeste 0 -- -- 50
2020-07-07 01:00:00 19 19 Oeste 57 Noroeste 0 -- -- 50
2020-07-07 00:00:00 20.3 35 Noroeste 60 Noroeste 0 -- -- 48
2020-07-06 23:00:00 21.2 31 Noroeste 52 Oeste 0 -- -- 50
2020-07-06 22:00:00 22.3 32 Oeste 69 Noroeste 0 -- -- 52
2020-07-06 21:00:00 24.6 38 Noroeste 62 Oeste 0 -- -- 49
2020-07-06 20:00:00 27 37 Noroeste 76 Oeste 0 -- -- 43
2020-07-06 19:00:00 29 39 Noroeste 79 Noroeste 0 -- -- 38
2020-07-06 18:00:00 30.6 35 Noroeste 58 Oeste 0 -- -- 36
2020-07-06 17:00:00 31.3 32 Noroeste 50 Oeste 0 -- -- 37
2020-07-06 16:00:00 31.3 30 Oeste 50 Noroeste 0 -- -- 38
2020-07-06 15:00:00 30.7 29 Noroeste 48 Noroeste 0 -- -- 41
2020-07-06 14:00:00 30.1 26 Noroeste 44 Noroeste 0 -- -- 43
2020-07-06 13:00:00 28.8 25 Oeste 44 Noroeste 0 -- -- 46
2020-07-06 12:00:00 27.1 26 Oeste 43 Oeste 0 -- -- 50
2020-07-06 11:00:00 25.5 24 Noroeste 40 Oeste 0 -- -- 53
2020-07-06 10:00:00 23.7 27 Noroeste 45 Oeste 0 -- -- 56
2020-07-06 09:00:00 22.4 27 Noroeste 46 Oeste 0 -- -- 59
2020-07-06 08:00:00 21.6 27 Noroeste 48 Noroeste 0 -- -- 59
2020-07-06 07:00:00 20.8 23 Noroeste 46 Oeste 0 -- -- 60
2020-07-06 06:00:00 21.5 26 Noroeste 44 Oeste 0 -- -- 58
2020-07-06 05:00:00 22.2 23 Noroeste 40 Oeste 0 -- -- 55
2020-07-06 04:00:00 23 19 Noroeste 44 Noroeste 0 -- -- 54
2020-07-06 03:00:00 23.8 16 Noroeste 35 Noroeste 0 -- -- 52
2020-07-06 02:00:00 24.2 10 Noroeste 36 Oeste 0 -- -- 51
2020-07-06 01:00:00 25.4 19 Noroeste 37 Oeste 0 -- -- 50
2020-07-06 00:00:00 27.5 22 Oeste 42 Noroeste 0 -- -- 48
2020-07-05 23:00:00 28.7 10 Oeste 18 Noroeste 0 -- -- 42
2020-07-05 22:00:00 30.7 11 Oeste 17 Oeste 0 -- -- 37
2020-07-05 21:00:00 33.9 11 Oeste 19 Oeste 0 -- -- 30
2020-07-05 20:00:00 35.5 11 Oeste 21 Noroeste 0 -- -- 25
2020-07-05 19:00:00 35.9 11 Oeste 27 Oeste 0 -- -- 24
2020-07-05 18:00:00 35.6 9 Noroeste 21 Oeste 0 -- -- 23
2020-07-05 17:00:00 35.2 7 Norte 19 Oeste 0 -- -- 24
2020-07-05 16:00:00 34.3 8 Oeste 19 Sur 0 -- -- 23
2020-07-05 15:00:00 32.9 7 Norte 21 Noroeste 0 -- -- 27
2020-07-05 14:00:00 30.9 10 Norte 27 Oeste 0 -- -- 29
2020-07-05 13:00:00 29.4 17 Noroeste 26 Noroeste 0 -- -- 30
2020-07-05 12:00:00 27.7 14 Noroeste 26 Noroeste 0 -- -- 35
2020-07-05 11:00:00 26.3 14 Noroeste 27 Noroeste 0 -- -- 38
2020-07-05 10:00:00 24.4 12 Noroeste 18 Noroeste 0 -- -- 43
2020-07-05 09:00:00 21.6 5 Noroeste 9 Oeste 0 -- -- 50
2020-07-05 08:00:00 19.4 0 Calma 6 Sudoeste 0 -- -- 54
2020-07-05 07:00:00 15.9 3 Oeste 8 Norte 0 -- -- 62
2020-07-05 06:00:00 17.4 0 Calma 8 Noroeste 0 -- -- 55
2020-07-05 05:00:00 18.2 2 Oeste 12 Oeste 0 -- -- 51
2020-07-05 04:00:00 19.7 0 Calma 15 Oeste 0 -- -- 40
2020-07-05 03:00:00 21 12 Oeste 18 Oeste 0 -- -- 35
2020-07-05 02:00:00 21.7 8 Noroeste 20 Oeste 0 -- -- 36
2020-07-05 01:00:00 21.4 10 Sudoeste 14 Oeste 0 -- -- 44
2020-07-05 00:00:00 22.9 10 Noroeste 23 Noroeste 0 -- -- 42
2020-07-04 23:00:00 23.1 12 Sudoeste 17 Oeste 0 -- -- 37
2020-07-04 22:00:00 26.6 12 Oeste 20 Oeste 0 -- -- 30
2020-07-04 21:00:00 30.3 13 Oeste 27 Noroeste 0 -- -- 26
2020-07-04 20:00:00 31.9 14 Noroeste 30 Oeste 0 -- -- 23
2020-07-04 19:00:00 32.3 17 Noroeste 28 Oeste 0 -- -- 22
2020-07-04 18:00:00 31.9 17 Noroeste 27 Noroeste 0 -- -- 23
2020-07-04 17:00:00 31 15 Noroeste 31 Oeste 0 -- -- 24
2020-07-04 16:00:00 29.7 20 Noroeste 35 Noroeste 0 -- -- 24
2020-07-04 15:00:00 28.8 19 Noroeste 37 Noroeste 0 -- -- 25
2020-07-04 14:00:00 26.9 21 Noroeste 32 Noroeste 0 -- -- 32
2020-07-04 13:00:00 25 18 Noroeste 35 Noroeste 0 -- -- 37
2020-07-04 12:00:00 23.6 22 Noroeste 35 Noroeste 0 -- -- 40
2020-07-04 11:00:00 21.6 23 Noroeste 44 Noroeste 0 -- -- 45
2020-07-04 10:00:00 20.3 24 Noroeste 42 Noroeste 0 -- -- 48
2020-07-04 09:00:00 19 23 Noroeste 36 Noroeste 0 -- -- 52
2020-07-04 08:00:00 17.7 7 Noroeste 18 Noroeste 0 -- -- 55
2020-07-04 07:00:00 15.6 6 Oeste 19 Oeste 0 -- -- 60
2020-07-04 06:00:00 16.4 10 Noroeste 39 Noroeste 0 -- -- 57
2020-07-04 05:00:00 16.5 18 Oeste 37 Oeste 0 -- -- 56
2020-07-04 04:00:00 16.9 17 Oeste 30 Oeste 0 -- -- 54
2020-07-04 03:00:00 17.5 8 Oeste 44 Oeste 0 -- -- 53
2020-07-04 02:00:00 17.8 15 Sudoeste 31 Oeste 0 -- -- 54
2020-07-04 01:00:00 19.5 13 Oeste 33 Oeste 0 -- -- 49
2020-07-04 00:00:00 20.8 17 Noroeste 35 Noroeste 0 -- -- 46
2020-07-03 23:00:00 21.7 23 Oeste 37 Oeste 0 -- -- 43
2020-07-03 22:00:00 22.7 18 Oeste 33 Oeste 0 -- -- 43
2020-07-03 21:00:00 25.2 19 Oeste 35 Noroeste 0 -- -- 38
2020-07-03 20:00:00 26.4 25 Noroeste 45 Noroeste 0 -- -- 35
2020-07-03 19:00:00 27.2 28 Noroeste 49 Noroeste 0 -- -- 31
2020-07-03 18:00:00 27.5 27 Noroeste 48 Oeste 0 -- -- 30
2020-07-03 17:00:00 27.3 29 Oeste 50 Oeste 0 -- -- 31
2020-07-03 16:00:00 26.7 25 Noroeste 49 Noroeste 0 -- -- 31
2020-07-03 15:00:00 26 30 Noroeste 46 Noroeste 0 -- -- 36
2020-07-03 14:00:00 25.2 28 Noroeste 45 Noroeste 0 -- -- 37
2020-07-03 13:00:00 24.3 30 Noroeste 49 Noroeste 0 -- -- 40
2020-07-03 12:00:00 23.1 31 Noroeste 51 Noroeste 0 -- -- 44
2020-07-03 11:00:00 21.4 31 Noroeste 51 Noroeste 0 -- -- 50
2020-07-03 10:00:00 20.5 35 Noroeste 51 Noroeste 0 -- -- 52
2020-07-03 09:00:00 19.5 19 Noroeste 46 Noroeste 0 -- -- 58
2020-07-03 08:00:00 17.5 23 Noroeste 52 Noroeste 0 -- -- 64
2020-07-03 07:00:00 17.5 30 Noroeste 53 Noroeste 0 -- -- 64
2020-07-03 06:00:00 17.8 35 Noroeste 60 Oeste 0 -- -- 64
2020-07-03 05:00:00 18.1 37 Noroeste 56 Oeste 0 -- -- 63
2020-07-03 04:00:00 18.1 31 Noroeste 53 Oeste 0 -- -- 63
2020-07-03 03:00:00 18.4 35 Noroeste 58 Oeste 0 -- -- 62
2020-07-03 02:00:00 18.7 33 Noroeste 58 Oeste 0 -- -- 62
2020-07-03 01:00:00 18.9 36 Oeste 57 Oeste 0 -- -- 61
2020-07-03 00:00:00 19.5 35 Oeste 57 Noroeste 0 -- -- 60
2020-07-02 23:00:00 20.8 33 Noroeste 55 Noroeste 0 -- -- 58
2020-07-02 22:00:00 23.3 31 Noroeste 54 Oeste 0 -- -- 51
2020-07-02 21:00:00 25.3 33 Noroeste 52 Noroeste 0 -- -- 47
2020-07-02 20:00:00 27.2 32 Noroeste 55 Noroeste 0 -- -- 46
2020-07-02 19:00:00 30.5 30 Noroeste 47 Oeste 0 -- -- 39
2020-07-02 18:00:00 32.2 18 Noroeste 32 Oeste 0 -- -- 36
2020-07-02 17:00:00 32.1 12 Noroeste 23 Oeste 0 -- -- 38
2020-07-02 16:00:00 31.5 12 Oeste 22 Oeste 0 -- -- 40
2020-07-02 15:00:00 29.8 4 Norte 27 Noroeste 0 -- -- 43
2020-07-02 14:00:00 29 17 Noroeste 32 Noroeste 0 -- -- 46
2020-07-02 13:00:00 27.9 19 Noroeste 35 Noroeste 0 -- -- 48
2020-07-02 12:00:00 26.6 22 Noroeste 31 Noroeste 0 -- -- 50
2020-07-02 11:00:00 25.6 16 Noroeste 28 Noroeste 0 -- -- 54
2020-07-02 10:00:00 23.8 14 Noroeste 24 Oeste 0 -- -- 61
2020-07-02 09:00:00 22.6 14 Oeste 24 Oeste 0 -- -- 63
2020-07-02 08:00:00 21 9 Oeste 13 Oeste 0 -- -- 69
2020-07-02 07:00:00 19.6 5 Oeste 12 Oeste 0 -- -- 72
2020-07-02 06:00:00 19.9 6 Oeste 12 Oeste 0 -- -- 70
2020-07-02 05:00:00 20.4 6 Noroeste 19 Noroeste 0 -- -- 69
2020-07-02 04:00:00 20.9 10 Noroeste 22 Oeste 0 -- -- 67
2020-07-02 03:00:00 21.6 13 Noroeste 28 Noroeste 0 -- -- 66
2020-07-02 02:00:00 22.4 19 Noroeste 33 Oeste 0 -- -- 64
2020-07-02 01:00:00 23.3 19 Noroeste 31 Noroeste 0 -- -- 62
2020-07-02 00:00:00 24.6 15 Oeste 30 Oeste 0 -- -- 61
2020-07-01 23:00:00 26.3 13 Oeste 27 Oeste 0 -- -- 56
2020-07-01 22:00:00 27.7 17 Noroeste 35 Noroeste 0 -- -- 55
2020-07-01 21:00:00 30.8 23 Noroeste 40 Noroeste 0 -- -- 46
2020-07-01 20:00:00 33.2 28 Noroeste 49 Noroeste 0 -- -- 40
2020-07-01 19:00:00 35.9 12 Noroeste 19 Oeste 0 -- -- 32
2020-07-01 18:00:00 37.1 9 Norte 15 Noroeste 0 -- -- 30
2020-07-01 17:00:00 36.5 5 Noroeste 14 Noroeste 0 -- -- 32
2020-07-01 16:00:00 34.8 6 Norte 15 Noroeste 0 -- -- 40
2020-07-01 15:00:00 33.6 5 Nordeste 10 Nordeste 0 -- -- 45
2020-07-01 14:00:00 31.5 6 Noroeste 14 Norte 0 -- -- 50
2020-07-01 13:00:00 29.8 4 Nordeste 10 Este 0 -- -- 57
2020-07-01 12:00:00 27.7 4 Norte 12 Este 0 -- -- 63
2020-07-01 11:00:00 26.5 4 Nordeste 12 Este 0 -- -- 69
2020-07-01 10:00:00 25.2 4 Este 9 Este 0 -- -- 72
2020-07-01 09:00:00 23.7 3 Norte 7 Nordeste 0 -- -- 77
2020-07-01 08:00:00 21.7 3 Sudoeste 6 Sudoeste 0 -- -- 87
2020-07-01 07:00:00 20.4 0 Calma 4 Nordeste 0 -- -- 89
2020-07-01 06:00:00 20.7 0 Calma 11 Este 0 -- -- 88
2020-07-01 05:00:00 21 8 Sudeste 14 Este 0 -- -- 88
2020-07-01 04:00:00 21.1 2 Este 7 Nordeste 0 -- -- 90
2020-07-01 03:00:00 21.2 3 Norte 8 Noroeste 0 -- -- 90
2020-07-01 02:00:00 21.6 4 Este 10 Sudeste 0 -- -- 88
2020-07-01 01:00:00 21.9 3 Noroeste 11 Sudoeste 0 -- -- 88
2020-07-01 00:00:00 22.1 12 Sudoeste 26 Oeste 0.6 -- -- 87
2020-06-30 23:00:00 22 12 Sudoeste 30 Noroeste 7.2 -- -- 84
2020-06-30 22:00:00 24.3 8 Nordeste 28 Este 4.2 -- -- 78
2020-06-30 21:00:00 29.1 13 Este 28 Este 0 -- -- 58
2020-06-30 20:00:00 31.1 17 Este 34 Este 0 -- -- 52
2020-06-30 19:00:00 34.4 14 Este 27 Este 0 -- -- 42
2020-06-30 18:00:00 35.9 12 Este 20 Este 0 -- -- 36
2020-06-30 17:00:00 35.5 8 Sudeste 24 Nordeste 0 -- -- 33
2020-06-30 16:00:00 34.5 7 Este 19 Este 0 -- -- 33
2020-06-30 15:00:00 32.8 4 Sudoeste 18 Sudeste 0 -- -- 40
2020-06-30 14:00:00 30.9 6 Sudeste 14 Sudeste 0 -- -- 45
2020-06-30 13:00:00 28.5 5 Nordeste 13 Norte 0 -- -- 51
2020-06-30 12:00:00 26.5 6 Norte 14 Noroeste 0 -- -- 56
2020-06-30 11:00:00 24.7 10 Noroeste 20 Noroeste 0 -- -- 48
2020-06-30 10:00:00 23 11 Noroeste 23 Noroeste 0 -- -- 57
2020-06-30 09:00:00 20.8 13 Noroeste 21 Noroeste 0 -- -- 64
2020-06-30 08:00:00 19.6 12 Noroeste 23 Noroeste 0 -- -- 69
2020-06-30 07:00:00 18.2 11 Noroeste 17 Noroeste 0 -- -- 73
2020-06-30 06:00:00 18.3 8 Noroeste 15 Oeste 0 -- -- 73
2020-06-30 05:00:00 18.6 8 Noroeste 10 Noroeste 0 -- -- 73
2020-06-30 04:00:00 19.4 7 Noroeste 12 Noroeste 0 -- -- 69
2020-06-30 03:00:00 20.5 7 Noroeste 14 Noroeste 0 -- -- 65
2020-06-30 02:00:00 22 4 Noroeste 21 Noroeste 0 -- -- 61
2020-06-30 01:00:00 23 15 Noroeste 31 Oeste 0 -- -- 58
2020-06-30 00:00:00 24.1 19 Oeste 35 Oeste 0 -- -- 57
2020-06-29 23:00:00 25.6 19 Noroeste 38 Noroeste 0 -- -- 53
2020-06-29 22:00:00 27.7 21 Noroeste 43 Oeste 0 -- -- 49
2020-06-29 21:00:00 30.7 22 Noroeste 33 Oeste 0 -- -- 43
2020-06-29 20:00:00 33.7 13 Noroeste 21 Noroeste 0 -- -- 39
2020-06-29 19:00:00 34.6 11 Oeste 17 Oeste 0 -- -- 35
2020-06-29 18:00:00 34.6 9 Oeste 19 Oeste 0 -- -- 37
2020-06-29 17:00:00 33.7 10 Noroeste 20 Este 0 -- -- 39
2020-06-29 16:00:00 33.3 6 Oeste 21 Noroeste 0 -- -- 39
2020-06-29 15:00:00 32.3 8 Oeste 24 Noroeste 0 -- -- 39
2020-06-29 14:00:00 31.1 11 Oeste 22 Noroeste 0 -- -- 42
2020-06-29 13:00:00 29.4 13 Noroeste 28 Noroeste 0 -- -- 45
2020-06-29 12:00:00 27.9 18 Noroeste 31 Oeste 0 -- -- 49
2020-06-29 11:00:00 26.4 20 Noroeste 33 Noroeste 0 -- -- 52
2020-06-29 10:00:00 25.2 20 Noroeste 35 Noroeste 0 -- -- 55
2020-06-29 09:00:00 23.6 21 Noroeste 32 Noroeste 0 -- -- 59
2020-06-29 08:00:00 22.3 14 Oeste 23 Oeste 0 -- -- 65
2020-06-29 07:00:00 20 5 Oeste 11 Oeste 0 -- -- 73
2020-06-29 06:00:00 20.5 9 Oeste 15 Oeste 0 -- -- 70
2020-06-29 05:00:00 21.1 9 Oeste 22 Noroeste 0 -- -- 67
2020-06-29 04:00:00 21.7 10 Oeste 24 Oeste 0 -- -- 65
2020-06-29 03:00:00 22.6 18 Oeste 39 Noroeste 0 -- -- 61
2020-06-29 02:00:00 23.6 16 Noroeste 28 Oeste 0 -- -- 58
2020-06-29 01:00:00 25.5 12 Oeste 28 Oeste 0 -- -- 54
2020-06-29 00:00:00 27.5 13 Sudoeste 20 Oeste 0 -- -- 55
2020-06-28 23:00:00 28.5 7 Este 15 Este 0 -- -- 57
2020-06-28 22:00:00 30.7 7 Sudeste 16 Sudeste 0 -- -- 44
2020-06-28 21:00:00 34.1 7 Sudoeste 14 Oeste 0 -- -- 32
2020-06-28 20:00:00 35.4 9 Oeste 17 Noroeste 0 -- -- 28
2020-06-28 19:00:00 35.9 5 Oeste 13 Norte 0 -- -- 27
2020-06-28 18:00:00 35.4 7 Noroeste 20 Noroeste 0 -- -- 29
2020-06-28 17:00:00 34.4 12 Noroeste 21 Noroeste 0 -- -- 33
2020-06-28 16:00:00 33.8 7 Nordeste 14 Noroeste 0 -- -- 37
2020-06-28 15:00:00 32.5 8 Norte 17 Norte 0 -- -- 44
2020-06-28 14:00:00 31.6 7 Noroeste 18 Noroeste 0 -- -- 43
2020-06-28 13:00:00 30.2 6 Nordeste 16 Noroeste 0 -- -- 49
2020-06-28 12:00:00 28.3 7 Noroeste 21 Noroeste 0 -- -- 58
2020-06-28 11:00:00 26.5 10 Noroeste 21 Noroeste 0 -- -- 62
2020-06-28 10:00:00 25 12 Noroeste 27 Noroeste 0 -- -- 64
2020-06-28 09:00:00 23.8 13 Oeste 21 Oeste 0 -- -- 66
2020-06-28 08:00:00 21.8 5 Oeste 15 Oeste 0 -- -- 75
2020-06-28 07:00:00 20 9 Noroeste 14 Noroeste 0 -- -- 82
2020-06-28 06:00:00 19.9 11 Oeste 16 Oeste 0 -- -- 80
2020-06-28 05:00:00 21.1 3 Sudeste 10 Este 0 -- -- 76
2020-06-28 04:00:00 21.5 9 Este 22 Este 0 -- -- 75
2020-06-28 03:00:00 21.7 2 Este 6 Sudoeste 0 -- -- 72
2020-06-28 02:00:00 22.3 3 Sudoeste 13 Sudoeste 0 -- -- 68
2020-06-28 01:00:00 23.8 5 Oeste 13 Este 0 -- -- 60
2020-06-28 00:00:00 24.4 4 Sudeste 10 Este 0 -- -- 59
2020-06-27 23:00:00 25.8 3 Sudoeste 9 Sudoeste 0 -- -- 56
2020-06-27 22:00:00 28.8 7 Sudoeste 9 Sudoeste 0 -- -- 44
2020-06-27 21:00:00 32.3 6 Oeste 8 Oeste 0 -- -- 33
2020-06-27 20:00:00 33.1 3 Nordeste 12 Norte 0 -- -- 32
2020-06-27 19:00:00 33.4 5 Norte 13 Norte 0 -- -- 30
2020-06-27 18:00:00 33.1 8 Norte 18 Norte 0 -- -- 32
2020-06-27 17:00:00 33.2 9 Noroeste 19 Noroeste 0 -- -- 31
2020-06-27 16:00:00 32.5 8 Noroeste 22 Norte 0 -- -- 33
2020-06-27 15:00:00 31.4 8 Noroeste 21 Noroeste 0 -- -- 36
2020-06-27 14:00:00 29.6 14 Noroeste 22 Noroeste 0 -- -- 42
2020-06-27 13:00:00 28.4 10 Noroeste 19 Noroeste 0 -- -- 45
2020-06-27 12:00:00 26.3 16 Noroeste 26 Noroeste 0 -- -- 51
2020-06-27 11:00:00 25 9 Noroeste 21 Noroeste 0 -- -- 59
2020-06-27 10:00:00 23 14 Noroeste 21 Noroeste 0 -- -- 68
2020-06-27 09:00:00 20.5 10 Noroeste 19 Noroeste 0 -- -- 79
2020-06-27 08:00:00 18.3 7 Noroeste 12 Noroeste 0 -- -- 87
2020-06-27 07:00:00 16.6 5 Noroeste 9 Norte 0 -- -- 91
2020-06-27 06:00:00 16.8 5 Noroeste 7 Oeste 0 -- -- 90
2020-06-27 05:00:00 17.2 0 Calma 5 Noroeste 0 -- -- 88
2020-06-27 04:00:00 17.4 5 Sudoeste 9 Sudoeste 0 -- -- 88
2020-06-27 03:00:00 18 6 Sudoeste 10 Sudoeste 0 -- -- 87
2020-06-27 02:00:00 18.6 6 Noroeste 10 Noroeste 0 -- -- 85
2020-06-27 01:00:00 20.4 2 Este 8 Sudeste 0 -- -- 80
2020-06-27 00:00:00 21.6 3 Sudoeste 19 Sudeste 0 -- -- 73
2020-06-26 23:00:00 22.4 12 Sudeste 26 Este 0 -- -- 61
2020-06-26 22:00:00 23.9 9 Este 18 Nordeste 0.6 -- -- 58
2020-06-26 21:00:00 25.8 7 Este 27 Este 0 -- -- 47
2020-06-26 20:00:00 27.5 15 Este 31 Este 0 -- -- 38
2020-06-26 19:00:00 28.4 12 Nordeste 34 Nordeste 0 -- -- 38
2020-06-26 18:00:00 29.4 9 Nordeste 27 Este 0 -- -- 39
2020-06-26 17:00:00 31.2 9 Nordeste 23 Sudeste 0 -- -- 36
2020-06-26 16:00:00 33.4 14 Este 28 Este 0 -- -- 28
2020-06-26 15:00:00 34.4 8 Este 19 Este 0 -- -- 26
2020-06-26 14:00:00 32.6 8 Sudeste 19 Este 0 -- -- 31
2020-06-26 13:00:00 30.8 12 Sudeste 22 Sudeste 0 -- -- 35
2020-06-26 12:00:00 28.8 8 Sudeste 16 Este 0 -- -- 38
2020-06-26 11:00:00 27.6 8 Este 12 Este 0 -- -- 45
2020-06-26 10:00:00 25.1 2 Noroeste 12 Sudeste 0 -- -- 55
2020-06-26 09:00:00 23.4 6 Sudeste 12 Sudeste 0 -- -- 61
2020-06-26 08:00:00 20.9 2 Sudeste 6 Oeste 0 -- -- 71
2020-06-26 07:00:00 19.4 3 Oeste 17 Sudeste 0 -- -- 76
2020-06-26 06:00:00 20 6 Este 13 Sudeste 0 -- -- 74
2020-06-26 05:00:00 20.9 8 Sudeste 18 Sudeste 0 -- -- 66
2020-06-26 04:00:00 20.9 13 Sur 26 Sudeste 0 -- -- 69
2020-06-26 03:00:00 22.2 16 Sudeste 26 Sudeste 0 -- -- 59
2020-06-26 02:00:00 21.3 5 Este 10 Este 0 -- -- 74
2020-06-26 01:00:00 22 4 Nordeste 12 Noroeste 0 -- -- 68
2020-06-26 00:00:00 21.5 6 Norte 17 Noroeste 0 -- -- 77
2020-06-25 23:00:00 21.8 12 Noroeste 24 Noroeste 0 -- -- 78
2020-06-25 22:00:00 23.6 8 Este 25 Este 0 -- -- 63
2020-06-25 21:00:00 23.7 12 Este 28 Nordeste 0 -- -- 70
2020-06-25 20:00:00 22.3 14 Nordeste 72 Oeste 6 -- -- 75
2020-06-25 19:00:00 30.8 13 Nordeste 29 Este 0 -- -- 41
2020-06-25 18:00:00 32.9 5 Nordeste 23 Este 0 -- -- 37
2020-06-25 17:00:00 34.9 12 Este 29 Este 0 -- -- 33
2020-06-25 16:00:00 36.3 12 Este 26 Nordeste 0 -- -- 29
2020-06-25 15:00:00 35.1 10 Nordeste 26 Este 0 -- -- 32
2020-06-25 14:00:00 33.4 12 Este 22 Este 0 -- -- 38
2020-06-25 13:00:00 31.6 9 Sudeste 22 Sudeste 0 -- -- 42
2020-06-25 12:00:00 29.2 6 Sudeste 14 Sudeste 0 -- -- 49
2020-06-25 11:00:00 26.8 8 Sudeste 17 Este 0 -- -- 54
2020-06-25 10:00:00 26.4 5 Sudeste 11 Nordeste 0 -- -- 55
2020-06-25 09:00:00 23.2 5 Sudeste 8 Sudeste 0 -- -- 63
2020-06-25 08:00:00 19.6 0 Calma 9 Este 0 -- -- 78
2020-06-25 07:00:00 16.8 6 Sur 12 Sudoeste 0 -- -- 84
2020-06-25 06:00:00 17.4 8 Sur 10 Sur 0 -- -- 79
2020-06-25 05:00:00 17.8 5 Sur 9 Este 0 -- -- 78
2020-06-25 04:00:00 18.8 4 Este 9 Este 0 -- -- 74
2020-06-25 03:00:00 19.2 3 Oeste 8 Norte 0 -- -- 75
2020-06-25 02:00:00 20.6 4 Sudeste 6 Nordeste 0 -- -- 70
2020-06-25 01:00:00 21.4 3 Sudeste 8 Sudoeste 0 -- -- 67
2020-06-25 00:00:00 22.7 5 Sur 10 Este 0 -- -- 60
2020-06-24 23:00:00 24.7 5 Este 19 Este 0 -- -- 53
2020-06-24 22:00:00 26 8 Este 35 Este 0 -- -- 53
2020-06-24 21:00:00 27.5 13 Nordeste 33 Norte 0 -- -- 47
2020-06-24 20:00:00 29.3 10 Noroeste 36 Sur 0 -- -- 37
2020-06-24 19:00:00 28.3 30 Sur 45 Sur 0 -- -- 38
2020-06-24 18:00:00 27.8 29 Sudoeste 67 Sur 0 -- -- 41
2020-06-24 17:00:00 29 35 Sur 68 Sur 0 -- -- 43
2020-06-24 16:00:00 34 3 Oeste 14 Este 0 -- -- 39
2020-06-24 15:00:00 34.6 5 Sur 17 Este 0 -- -- 39
2020-06-24 14:00:00 33.4 6 Sudeste 16 Sudeste 0 -- -- 41
2020-06-24 13:00:00 31.6 6 Nordeste 17 Este 0 -- -- 46
2020-06-24 12:00:00 29.6 6 Este 21 Este 0 -- -- 50
2020-06-24 11:00:00 27.3 7 Sudeste 16 Sudeste 0 -- -- 56
2020-06-24 10:00:00 25.7 8 Sudeste 18 Este 0 -- -- 60
2020-06-24 09:00:00 23.8 13 Este 25 Este 0 -- -- 65
2020-06-24 08:00:00 21.6 4 Este 7 Este 0 -- -- 73
2020-06-24 07:00:00 19.9 6 Este 13 Este 0 -- -- 76
2020-06-24 06:00:00 20.1 7 Sudeste 15 Sur 0 -- -- 78
2020-06-24 05:00:00 20.3 5 Sudeste 14 Este 0 -- -- 76
2020-06-24 04:00:00 20.6 5 Nordeste 11 Nordeste 0 -- -- 74
2020-06-24 03:00:00 21.5 4 Nordeste 13 Este 0 -- -- 72
2020-06-24 02:00:00 22.5 7 Este 21 Este 0 -- -- 71
2020-06-24 01:00:00 23.6 6 Este 12 Este 0 -- -- 65
2020-06-24 00:00:00 24.8 4 Este 19 Este 0 -- -- 60
2020-06-23 23:00:00 26.2 10 Este 23 Sudeste 0 -- -- 55
2020-06-23 22:00:00 28 14 Este 30 Este 0 -- -- 49
2020-06-23 21:00:00 30.3 17 Este 31 Este 0 -- -- 43
2020-06-23 20:00:00 33.1 21 Este 44 Este 0 -- -- 39
2020-06-23 19:00:00 35.9 8 Este 20 Este 0 -- -- 33
2020-06-23 18:00:00 36.1 9 Este 16 Nordeste 0 -- -- 29
2020-06-23 17:00:00 35.2 9 Norte 21 Sudeste 0 -- -- 32
2020-06-23 16:00:00 34.9 8 Este 18 Este 0 -- -- 33
2020-06-23 15:00:00 33.7 9 Este 16 Sudeste 0 -- -- 36
2020-06-23 14:00:00 32.2 6 Sudeste 17 Este 0 -- -- 38
2020-06-23 13:00:00 30.1 8 Este 17 Este 0 -- -- 40
2020-06-23 12:00:00 27.4 5 Norte 11 Este 0 -- -- 44
2020-06-23 11:00:00 25.5 5 Norte 12 Norte 0 -- -- 50
2020-06-23 10:00:00 23.3 6 Norte 12 Norte 0 -- -- 57
2020-06-23 09:00:00 21.6 5 Noroeste 9 Noroeste 0 -- -- 62
2020-06-23 08:00:00 18.3 3 Oeste 6 Sudoeste 0 -- -- 69
2020-06-23 07:00:00 14.8 3 Sur 8 Sudoeste 0 -- -- 81
2020-06-23 06:00:00 15.6 2 Este 8 Sur 0 -- -- 77
2020-06-23 05:00:00 15.7 6 Sudoeste 13 Sudoeste 0 -- -- 76
2020-06-23 04:00:00 16.8 5 Sudoeste 8 Sudoeste 0 -- -- 72
2020-06-23 03:00:00 18.2 3 Sudeste 7 Oeste 0 -- -- 68
2020-06-23 02:00:00 20 0 Calma 9 Sudoeste 0 -- -- 59
2020-06-23 01:00:00 21.8 4 Noroeste 13 Este 0 -- -- 54
2020-06-23 00:00:00 22.3 4 Oeste 14 Este 0 -- -- 54
2020-06-22 23:00:00 24.4 6 Sudoeste 13 Sudoeste 0 -- -- 43
2020-06-22 22:00:00 26.7 9 Sudoeste 13 Sudoeste 0 -- -- 40
2020-06-22 21:00:00 30.8 5 Noroeste 14 Noroeste 0 -- -- 32
2020-06-22 20:00:00 32.5 12 Noroeste 20 Noroeste 0 -- -- 27
2020-06-22 19:00:00 32.9 13 Noroeste 23 Noroeste 0 -- -- 26
2020-06-22 18:00:00 33 15 Noroeste 25 Noroeste 0 -- -- 27
2020-06-22 17:00:00 32.5 15 Noroeste 28 Oeste 0 -- -- 27
2020-06-22 16:00:00 31.6 16 Noroeste 27 Oeste 0 -- -- 31
2020-06-22 15:00:00 30.1 17 Noroeste 29 Noroeste 0 -- -- 38
2020-06-22 14:00:00 28.5 18 Noroeste 34 Noroeste 0 -- -- 39
2020-06-22 13:00:00 26.7 21 Noroeste 43 Noroeste 0 -- -- 44
2020-06-22 12:00:00 25.4 26 Noroeste 38 Noroeste 0 -- -- 48
2020-06-22 11:00:00 23.8 22 Noroeste 45 Noroeste 0 -- -- 55
2020-06-22 10:00:00 23.2 21 Noroeste 41 Noroeste 0 -- -- 56
2020-06-22 09:00:00 21.5 29 Noroeste 43 Noroeste 0 -- -- 60
2020-06-22 08:00:00 20.9 14 Noroeste 28 Noroeste 0 -- -- 62
2020-06-22 07:00:00 19 4 Noroeste 29 Noroeste 0 -- -- 67
2020-06-22 06:00:00 19.7 11 Noroeste 33 Oeste 0 -- -- 62
2020-06-22 05:00:00 20.2 21 Noroeste 33 Noroeste 0 -- -- 58
2020-06-22 04:00:00 20.3 10 Noroeste 37 Noroeste 0 -- -- 55
2020-06-22 03:00:00 20.8 22 Oeste 39 Oeste 0 -- -- 54
2020-06-22 02:00:00 21.4 17 Oeste 36 Noroeste 0 -- -- 53
2020-06-22 01:00:00 22.6 21 Noroeste 48 Noroeste 0 -- -- 49
2020-06-22 00:00:00 24.2 27 Noroeste 49 Noroeste 0 -- -- 44
2020-06-21 23:00:00 25.4 23 Oeste 41 Oeste 0 -- -- 41
2020-06-21 22:00:00 27.5 19 Oeste 37 Noroeste 0 -- -- 32
2020-06-21 21:00:00 30 24 Noroeste 42 Noroeste 0 -- -- 30
2020-06-21 20:00:00 32 26 Noroeste 45 Noroeste 0 -- -- 27
2020-06-21 19:00:00 33.1 24 Noroeste 40 Noroeste 0 -- -- 25
2020-06-21 18:00:00 33.7 22 Noroeste 38 Noroeste 0 -- -- 22
2020-06-21 17:00:00 33.7 20 Noroeste 34 Oeste 0 -- -- 22
2020-06-21 16:00:00 33 23 Noroeste 38 Oeste 0 -- -- 23
2020-06-21 15:00:00 31.5 23 Noroeste 37 Noroeste 0 -- -- 28
2020-06-21 14:00:00 30.8 19 Noroeste 28 Noroeste 0 -- -- 33
2020-06-21 13:00:00 29.5 16 Noroeste 26 Noroeste 0 -- -- 37
2020-06-21 12:00:00 27.4 16 Noroeste 27 Noroeste 0 -- -- 40
2020-06-21 11:00:00 25.3 17 Noroeste 26 Noroeste 0 -- -- 45
2020-06-21 10:00:00 23.2 16 Noroeste 27 Noroeste 0 -- -- 54
2020-06-21 09:00:00 21.9 12 Noroeste 18 Noroeste 0 -- -- 56
2020-06-21 08:00:00 20.1 9 Noroeste 13 Noroeste 0 -- -- 61
2020-06-21 07:00:00 18.3 8 Oeste 13 Noroeste 0 -- -- 68
2020-06-21 06:00:00 18.2 3 Nordeste 6 Nordeste 0 -- -- 72
2020-06-21 05:00:00 19 0 Calma 7 Este 0 -- -- 70
2020-06-21 04:00:00 20 6 Este 15 Noroeste 0 -- -- 70
2020-06-21 03:00:00 20.5 3 Sudoeste 9 Oeste 0 -- -- 66
2020-06-21 02:00:00 21.3 3 Norte 12 Oeste 0 -- -- 69
2020-06-21 01:00:00 21.8 5 Oeste 10 Oeste 0 -- -- 64
2020-06-21 00:00:00 24 3 Sudoeste 12 Este 0 -- -- 56
2020-06-20 23:00:00 25.5 5 Noroeste 12 Noroeste 0 -- -- 49
2020-06-20 22:00:00 27.4 9 Sudoeste 11 Sudoeste 0 -- -- 46
2020-06-20 21:00:00 31.4 8 Oeste 15 Oeste 0 -- -- 34
2020-06-20 20:00:00 32.5 8 Noroeste 14 Noroeste 0 -- -- 31
2020-06-20 19:00:00 32.8 6 Noroeste 18 Noroeste 0 -- -- 30
2020-06-20 18:00:00 32.7 9 Noroeste 18 Noroeste 0 -- -- 29
2020-06-20 17:00:00 31.4 6 Norte 18 Norte 0 -- -- 33
2020-06-20 16:00:00 30 7 Norte 15 Noroeste 0 -- -- 44
2020-06-20 15:00:00 28.4 6 Norte 14 Norte 0 -- -- 50
2020-06-20 14:00:00 27.1 8 Nordeste 14 Nordeste 0 -- -- 55
2020-06-20 13:00:00 25.6 5 Noroeste 15 Noroeste 0 -- -- 59
2020-06-20 12:00:00 23.9 6 Norte 12 Norte 0 -- -- 62
2020-06-20 11:00:00 22.8 6 Nordeste 15 Norte 0 -- -- 65
2020-06-20 10:00:00 20.4 10 Norte 16 Noroeste 0 -- -- 69
2020-06-20 09:00:00 19 12 Noroeste 17 Noroeste 0 -- -- 73
2020-06-20 08:00:00 17.7 8 Noroeste 12 Noroeste 0 -- -- 80
2020-06-20 07:00:00 17.8 5 Norte 9 Noroeste 0 -- -- 85
2020-06-20 06:00:00 17.7 3 Sudoeste 6 Oeste 0 -- -- 89
2020-06-20 05:00:00 17.8 4 Norte 10 Nordeste 0 -- -- 88
2020-06-20 04:00:00 18 4 Este 9 Este 0 -- -- 87
2020-06-20 03:00:00 18.6 5 Norte 8 Noroeste 0 -- -- 84
2020-06-20 02:00:00 19.6 4 Este 12 Este 0 -- -- 80
2020-06-20 01:00:00 20.3 2 Este 8 Noroeste 0 -- -- 77
2020-06-20 00:00:00 21.7 4 Este 14 Sudeste 0 -- -- 72
2020-06-19 23:00:00 23 10 Sudeste 19 Este 0 -- -- 66
2020-06-19 22:00:00 24.2 13 Este 20 Este 0 -- -- 63
2020-06-19 21:00:00 26.5 13 Este 25 Este 0 -- -- 55
2020-06-19 20:00:00 28 17 Este 27 Este 0 -- -- 50
2020-06-19 19:00:00 29.7 10 Este 23 Este 0 -- -- 43
2020-06-19 18:00:00 29.8 8 Sudeste 25 Este 0 -- -- 43
2020-06-19 17:00:00 29.3 9 Este 29 Este 0 -- -- 46
2020-06-19 16:00:00 29.1 6 Norte 20 Este 0 -- -- 45
2020-06-19 15:00:00 28.1 6 Nordeste 16 Este 0 -- -- 50
2020-06-19 14:00:00 26.3 7 Norte 17 Norte 0 -- -- 56
2020-06-19 13:00:00 24.4 5 Norte 13 Norte 0 -- -- 55
2020-06-19 12:00:00 23 5 Norte 16 Noroeste 0 -- -- 51
2020-06-19 11:00:00 20.9 9 Noroeste 16 Noroeste 0 -- -- 58
2020-06-19 10:00:00 19 6 Noroeste 12 Norte 0 -- -- 65
2020-06-19 09:00:00 17.5 9 Noroeste 15 Noroeste 0 -- -- 71
2020-06-19 08:00:00 16.9 7 Oeste 12 Oeste 0 -- -- 71
2020-06-19 07:00:00 15.6 5 Noroeste 11 Noroeste 0 -- -- 78
2020-06-19 06:00:00 16 8 Noroeste 13 Noroeste 0 -- -- 77
2020-06-19 05:00:00 16.2 5 Noroeste 12 Noroeste 0 -- -- 78
2020-06-19 04:00:00 17.3 8 Noroeste 14 Noroeste 0 -- -- 77
2020-06-19 03:00:00 17.7 4 Este 6 Este 0 -- -- 83
2020-06-19 02:00:00 18.2 3 Oeste 7 Sudoeste 0 -- -- 80
2020-06-19 01:00:00 19.8 2 Oeste 8 Sudeste 0 -- -- 74
2020-06-19 00:00:00 21.5 6 Este 11 Este 0 -- -- 65
2020-06-18 23:00:00 22.9 8 Sudeste 14 Sudeste 0 -- -- 60
2020-06-18 22:00:00 23.8 9 Sudeste 17 Este 0 -- -- 57
2020-06-18 21:00:00 24.5 5 Sudeste 14 Este 0 -- -- 51
2020-06-18 20:00:00 25.7 8 Este 15 Este 0 -- -- 46
2020-06-18 19:00:00 25.8 7 Este 19 Este 0 -- -- 44
2020-06-18 18:00:00 26.3 5 Norte 13 Sur 0 -- -- 45
2020-06-18 17:00:00 26.2 5 Oeste 14 Norte 0 -- -- 47
2020-06-18 16:00:00 24.9 6 Noroeste 14 Noroeste 0 -- -- 49
2020-06-18 15:00:00 23.4 8 Noroeste 14 Nordeste 0 -- -- 52
2020-06-18 14:00:00 22.1 5 Nordeste 17 Nordeste 0 -- -- 56
2020-06-18 13:00:00 20.7 7 Norte 14 Norte 0 -- -- 60
2020-06-18 12:00:00 19.4 7 Noroeste 14 Norte 0 -- -- 68
2020-06-18 11:00:00 18.4 6 Norte 13 Noroeste 0 -- -- 74
2020-06-18 10:00:00 16 5 Norte 9 Norte 0 -- -- 88
2020-06-18 09:00:00 15 4 Noroeste 17 Noroeste 0 -- -- 86
2020-06-18 08:00:00 14.7 8 Oeste 25 Noroeste 0 -- -- 90
2020-06-18 07:00:00 13.9 13 Sudeste 25 Oeste 2.4 -- -- 91
2020-06-18 06:00:00 15.3 16 Oeste 27 Noroeste 0 -- -- 79
2020-06-18 05:00:00 15 14 Sudoeste 22 Oeste 0 -- -- 78
2020-06-18 04:00:00 15.5 5 Noroeste 30 Noroeste 0 -- -- 75
2020-06-18 03:00:00 16.9 15 Oeste 28 Oeste 0 -- -- 69
2020-06-18 02:00:00 17.9 3 Noroeste 10 Oeste 0 -- -- 64
2020-06-18 01:00:00 18.1 2 Noroeste 6 Noroeste 0 -- -- 62
2020-06-18 00:00:00 18.3 5 Noroeste 11 Oeste 0 -- -- 61
2020-06-17 23:00:00 18.5 10 Sudoeste 13 Oeste 0 -- -- 59
2020-06-17 22:00:00 21.3 9 Oeste 17 Oeste 0 -- -- 48
2020-06-17 21:00:00 23.6 8 Oeste 22 Noroeste 0 -- -- 40
2020-06-17 20:00:00 24.8 13 Noroeste 26 Noroeste 0 -- -- 36
2020-06-17 19:00:00 24.9 15 Noroeste 31 Noroeste 0 -- -- 37
2020-06-17 18:00:00 25.1 17 Noroeste 28 Noroeste 0 -- -- 37
2020-06-17 17:00:00 24.8 18 Noroeste 32 Oeste 0 -- -- 38
2020-06-17 16:00:00 24.2 19 Noroeste 33 Noroeste 0 -- -- 39
2020-06-17 15:00:00 23.8 17 Noroeste 33 Noroeste 0 -- -- 43
2020-06-17 14:00:00 22.9 19 Oeste 33 Noroeste 0 -- -- 44
2020-06-17 13:00:00 21.9 21 Noroeste 33 Noroeste 0 -- -- 45
2020-06-17 12:00:00 21 18 Noroeste 33 Oeste 0 -- -- 51
2020-06-17 11:00:00 19.7 20 Noroeste 31 Noroeste 0 -- -- 54
2020-06-17 10:00:00 17.7 16 Oeste 28 Noroeste 0 -- -- 62
2020-06-17 09:00:00 17 12 Oeste 23 Oeste 0 -- -- 66
2020-06-17 08:00:00 15.6 11 Oeste 18 Oeste 0 -- -- 72
2020-06-17 07:00:00 14.4 7 Oeste 18 Noroeste 0 -- -- 78
2020-06-17 06:00:00 14.4 12 Oeste 22 Oeste 0 -- -- 75
2020-06-17 05:00:00 14.3 12 Oeste 18 Oeste 0 -- -- 76
2020-06-17 04:00:00 14.4 9 Sudoeste 17 Sudoeste 0 -- -- 75
2020-06-17 03:00:00 15.1 5 Sudoeste 21 Oeste 0 -- -- 75
2020-06-17 02:00:00 15.7 6 Noroeste 30 Oeste 0 -- -- 76
2020-06-17 01:00:00 16.1 13 Oeste 30 Oeste 0 -- -- 76
2020-06-17 00:00:00 16.8 23 Oeste 38 Oeste 0 -- -- 73
2020-06-16 23:00:00 17.1 8 Oeste 23 Oeste 0 -- -- 72
2020-06-16 22:00:00 18 11 Oeste 39 Noroeste 0 -- -- 72
2020-06-16 21:00:00 19.6 14 Oeste 38 Noroeste 0 -- -- 63
2020-06-16 20:00:00 23.7 18 Noroeste 32 Noroeste 0 -- -- 49
2020-06-16 19:00:00 23.7 5 Sudeste 10 Este 0.2 -- -- 52
2020-06-16 18:00:00 23 7 Norte 12 Norte 0 -- -- 56
2020-06-16 17:00:00 23.7 5 Este 19 Sur 0 -- -- 60
2020-06-16 16:00:00 22.1 8 Sur 23 Sur 0 -- -- 66
2020-06-16 15:00:00 19.7 6 Sudeste 12 Este 0 -- -- 80
2020-06-16 14:00:00 16.6 4 Nordeste 9 Norte 0 -- -- 89
2020-06-16 13:00:00 16 3 Este 10 Este 1 -- -- 92
2020-06-16 12:00:00 15.8 3 Nordeste 7 Este 1.8 -- -- 91
2020-06-16 11:00:00 15.4 0 Calma 8 Noroeste 0.4 -- -- 89
2020-06-16 10:00:00 15 4 Nordeste 7 Norte 0.2 -- -- 89
2020-06-16 09:00:00 14.4 3 Nordeste 10 Noroeste 1.8 -- -- 89
2020-06-16 08:00:00 14.4 6 Noroeste 15 Noroeste 1.4 -- -- 87
2020-06-16 07:00:00 15 9 Oeste 20 Noroeste 0 -- -- 82
2020-06-16 06:00:00 15 5 Noroeste 30 Oeste 0 -- -- 84
2020-06-16 05:00:00 15.7 17 Noroeste 33 Noroeste 0 -- -- 80
2020-06-16 04:00:00 17.2 17 Noroeste 32 Noroeste 0 -- -- 75
2020-06-16 03:00:00 18.6 5 Noroeste 11 Oeste 0 -- -- 82
2020-06-16 02:00:00 18.6 4 Sur 9 Sudoeste 0.4 -- -- 84
2020-06-16 01:00:00 19.1 5 Oeste 22 Oeste 1 -- -- 80
2020-06-16 00:00:00 21 11 Oeste 17 Oeste 0 -- -- 64
2020-06-15 23:00:00 23.3 10 Noroeste 33 Oeste 0 -- -- 46
2020-06-15 22:00:00 24.4 17 Noroeste 26 Noroeste 0 -- -- 42
2020-06-15 21:00:00 25.8 9 Oeste 27 Noroeste 0 -- -- 40
2020-06-15 20:00:00 26.5 17 Noroeste 27 Oeste 0 -- -- 39
2020-06-15 19:00:00 27.3 14 Noroeste 30 Noroeste 0 -- -- 36
2020-06-15 18:00:00 28.8 16 Noroeste 29 Norte 0 -- -- 32
2020-06-15 17:00:00 28.4 18 Norte 33 Norte 0 -- -- 34
2020-06-15 16:00:00 28.2 18 Noroeste 33 Norte 0 -- -- 33
2020-06-15 15:00:00 27.6 13 Noroeste 27 Norte 0 -- -- 34
2020-06-15 14:00:00 26.3 15 Noroeste 28 Noroeste 0 -- -- 36
2020-06-15 13:00:00 24.9 14 Noroeste 29 Noroeste 0 -- -- 42
2020-06-15 12:00:00 22.4 22 Noroeste 33 Noroeste 0 -- -- 46
2020-06-15 11:00:00 21.7 17 Noroeste 29 Norte 0 -- -- 49
2020-06-15 10:00:00 20.4 12 Norte 22 Noroeste 0 -- -- 52
2020-06-15 09:00:00 18.4 10 Noroeste 15 Noroeste 0 -- -- 57
2020-06-15 08:00:00 16.7 7 Noroeste 13 Noroeste 0 -- -- 62
2020-06-15 07:00:00 15.5 0 Calma 13 Oeste 0 -- -- 66
2020-06-15 06:00:00 15 7 Oeste 10 Noroeste 0 -- -- 68
2020-06-15 05:00:00 16.4 6 Noroeste 13 Oeste 0 -- -- 63
2020-06-15 04:00:00 17.7 6 Oeste 15 Noroeste 0 -- -- 60
2020-06-15 03:00:00 18.5 9 Oeste 15 Oeste 0 -- -- 60
2020-06-15 02:00:00 19.8 7 Oeste 19 Oeste 0 -- -- 57
2020-06-15 01:00:00 19.6 8 Sudoeste 18 Noroeste 0 -- -- 53
2020-06-15 00:00:00 22.1 10 Noroeste 27 Noroeste 0 -- -- 44
2020-06-14 23:00:00 22.8 16 Noroeste 26 Noroeste 0 -- -- 43
2020-06-14 22:00:00 23.7 13 Noroeste 22 Noroeste 0 -- -- 43
2020-06-14 21:00:00 25.3 11 Noroeste 26 Noroeste 0 -- -- 38
2020-06-14 20:00:00 26.5 12 Noroeste 24 Noroeste 0 -- -- 35
2020-06-14 19:00:00 27.9 16 Noroeste 31 Noroeste 0 -- -- 30
2020-06-14 18:00:00 28.3 18 Noroeste 35 Noroeste 0 -- -- 30
2020-06-14 17:00:00 28.7 19 Noroeste 36 Noroeste 0 -- -- 30
2020-06-14 16:00:00 27.4 11 Norte 36 Norte 0 -- -- 34
2020-06-14 15:00:00 27.4 10 Noroeste 21 Norte 0 -- -- 35
2020-06-14 14:00:00 26.3 12 Norte 24 Noroeste 0 -- -- 36
2020-06-14 13:00:00 25.6 8 Norte 17 Norte 0 -- -- 38
2020-06-14 12:00:00 24.7 7 Norte 13 Noroeste 0 -- -- 43
2020-06-14 11:00:00 23 6 Norte 12 Norte 0 -- -- 50
2020-06-14 10:00:00 20.1 6 Noroeste 14 Norte 0 -- -- 59
2020-06-14 09:00:00 17 4 Norte 7 Norte 0 -- -- 68
2020-06-14 08:00:00 14.8 0 Calma 7 Este 0 -- -- 75
2020-06-14 07:00:00 11.4 2 Sudoeste 9 Oeste 0 -- -- 80
2020-06-14 06:00:00 12.5 5 Sudoeste 8 Noroeste 0 -- -- 76
2020-06-14 05:00:00 13.4 4 Noroeste 5 Norte 0 -- -- 75
2020-06-14 04:00:00 14.1 2 Norte 6 Oeste 0 -- -- 74
2020-06-14 03:00:00 15.3 2 Sudeste 8 Sur 0 -- -- 65
2020-06-14 02:00:00 15 7 Sur 10 Sur 0 -- -- 66
2020-06-14 01:00:00 15.9 3 Sur 9 Sudoeste 0 -- -- 62
2020-06-14 00:00:00 16.4 7 Sudoeste 9 Sudoeste 0 -- -- 59
2020-06-13 23:00:00 18.6 5 Oeste 10 Oeste 0 -- -- 52
2020-06-13 22:00:00 21.2 8 Noroeste 17 Noroeste 0 -- -- 42
2020-06-13 21:00:00 23.2 10 Noroeste 22 Noroeste 0 -- -- 38
2020-06-13 20:00:00 24.5 16 Noroeste 29 Noroeste 0 -- -- 35
2020-06-13 19:00:00 25.1 18 Noroeste 33 Noroeste 0 -- -- 33
2020-06-13 18:00:00 24.4 15 Noroeste 37 Oeste 0 -- -- 35
2020-06-13 17:00:00 24.9 19 Noroeste 36 Noroeste 0 -- -- 34
2020-06-13 16:00:00 25.6 19 Noroeste 46 Sudoeste 0 -- -- 31
2020-06-13 15:00:00 24.7 14 Oeste 32 Noroeste 0 -- -- 32
2020-06-13 14:00:00 23.7 16 Noroeste 32 Oeste 0 -- -- 36
2020-06-13 13:00:00 22.6 19 Noroeste 37 Oeste 0 -- -- 39
2020-06-13 12:00:00 22.1 21 Oeste 35 Oeste 0 -- -- 41
2020-06-13 11:00:00 21.8 21 Oeste 37 Oeste 0 -- -- 42
2020-06-13 10:00:00 20.5 19 Oeste 32 Oeste 0 -- -- 47
2020-06-13 09:00:00 19.2 8 Oeste 16 Noroeste 0 -- -- 53
2020-06-13 08:00:00 15.7 6 Sudoeste 11 Sudoeste 0 -- -- 68
2020-06-13 07:00:00 11.9 0 Calma 8 Sudoeste 0 -- -- 84
2020-06-13 06:00:00 12.8 4 Sur 6 Sur 0 -- -- 81
2020-06-13 05:00:00 12.4 4 Noroeste 9 Sudoeste 0 -- -- 81
2020-06-13 04:00:00 12.5 9 Sudoeste 15 Sudoeste 0 -- -- 76
2020-06-13 03:00:00 14 4 Oeste 11 Oeste 0 -- -- 73
2020-06-13 02:00:00 15.2 3 Norte 25 Oeste 0 -- -- 70
2020-06-13 01:00:00 16.9 16 Noroeste 25 Oeste 0 -- -- 61
2020-06-13 00:00:00 18 13 Noroeste 20 Noroeste 0 -- -- 56
2020-06-12 23:00:00 19.4 13 Noroeste 36 Oeste 0 -- -- 50
2020-06-12 22:00:00 22.7 7 Sur 16 Sur 0 -- -- 35
2020-06-12 21:00:00 24 10 Oeste 28 Oeste 0 -- -- 31
2020-06-12 20:00:00 25 18 Oeste 38 Oeste 0 -- -- 28
2020-06-12 19:00:00 26.1 26 Oeste 45 Sudoeste 0 -- -- 27
2020-06-12 18:00:00 25.2 25 Oeste 39 Sudoeste 0 -- -- 28
2020-06-12 17:00:00 25.8 21 Oeste 42 Oeste 0 -- -- 30
2020-06-12 16:00:00 24.8 18 Oeste 32 Sudoeste 0 -- -- 33
2020-06-12 15:00:00 23.5 14 Noroeste 24 Noroeste 0 -- -- 36
2020-06-12 14:00:00 21.8 17 Norte 26 Noroeste 0 -- -- 39
2020-06-12 13:00:00 21.7 18 Noroeste 28 Noroeste 0 -- -- 40
2020-06-12 12:00:00 21.4 11 Noroeste 29 Oeste 0 -- -- 39
2020-06-12 11:00:00 19.7 7 Noroeste 23 Oeste 0 -- -- 49
2020-06-12 10:00:00 18.6 9 Norte 18 Noroeste 0 -- -- 60
2020-06-12 09:00:00 16 4 Este 10 Sudeste 0 -- -- 72
2020-06-12 08:00:00 12.9 4 Norte 9 Norte 0 -- -- 83
2020-06-12 07:00:00 12.2 0 Calma 12 Noroeste 0 -- -- 84
2020-06-12 06:00:00 12.2 5 Noroeste 10 Noroeste 0 -- -- 85
2020-06-12 05:00:00 12.1 7 Oeste 15 Noroeste 0 -- -- 83
2020-06-12 04:00:00 12.4 8 Noroeste 13 Noroeste 0 -- -- 86
2020-06-12 03:00:00 13.4 4 Norte 25 Noroeste 0 -- -- 85
2020-06-12 02:00:00 14.3 12 Noroeste 24 Noroeste 0 -- -- 86
2020-06-12 01:00:00 15.3 12 Noroeste 30 Oeste 0 -- -- 81
2020-06-12 00:00:00 16.7 28 Noroeste 47 Noroeste 0 -- -- 77